createdAt,value
2022-10-08T00:03:54.679Z,0.6
2022-10-08T00:08:54.439Z,0.4
2022-10-08T00:13:53.659Z,0.4
2022-10-08T00:18:54.190Z,0.4
2022-10-08T00:23:53.691Z,0.4
2022-10-08T00:28:54.204Z,0.4
2022-10-08T00:33:53.730Z,0.4
2022-10-08T00:38:54.205Z,0.4
2022-10-08T00:43:53.640Z,0.4
2022-10-08T00:48:53.330Z,0.4
2022-10-08T00:53:53.743Z,0.4
2022-10-08T00:58:53.278Z,0.4
2022-10-08T01:03:54.012Z,0.4
2022-10-08T01:08:54.197Z,0.4
2022-10-08T01:13:53.474Z,0.4
2022-10-08T01:18:53.728Z,0.4
2022-10-08T01:23:53.243Z,0.4
2022-10-08T01:28:54.051Z,0.5
2022-10-08T01:33:53.411Z,0.5
2022-10-08T01:38:53.891Z,0.5
2022-10-08T01:43:53.393Z,0.5
2022-10-08T01:48:53.943Z,0.2
2022-10-08T01:53:53.748Z,0.2
2022-10-08T01:58:53.332Z,0.4
2022-10-08T02:03:53.900Z,0.4
2022-10-08T02:08:53.437Z,0.8
2022-10-08T02:13:53.969Z,0.8
2022-10-08T02:18:53.289Z,0.9
2022-10-08T02:23:53.681Z,0.9
2022-10-08T02:28:54.146Z,0.9
2022-10-08T02:33:53.649Z,0.9
2022-10-08T02:38:54.266Z,0.8
2022-10-08T02:43:53.266Z,0.8
2022-10-08T02:48:53.668Z,0.9
2022-10-08T02:53:53.841Z,0.9
2022-10-08T02:58:53.754Z,0.9
2022-10-08T03:03:53.771Z,0.9
2022-10-08T03:08:53.304Z,0.9
2022-10-08T03:13:54.141Z,0.9
2022-10-08T03:18:54.212Z,0.9
2022-10-08T03:23:54.207Z,0.9
2022-10-08T03:28:53.692Z,0.6
2022-10-08T03:33:53.560Z,0.6
2022-10-08T03:38:54.247Z,0.4
2022-10-08T03:43:54.073Z,0.4
2022-10-08T03:48:53.975Z,0.4
2022-10-08T03:53:53.939Z,0.4
2022-10-08T03:58:54.155Z,0.4
2022-10-08T04:03:54.293Z,0.4
2022-10-08T04:08:53.409Z,0.4
2022-10-08T04:13:54.178Z,0.4
2022-10-08T04:18:53.705Z,0.4
2022-10-08T04:23:54.230Z,0.4
2022-10-08T04:28:53.786Z,0.4
2022-10-08T07:08:54.005Z,0.4
2022-10-08T07:13:53.658Z,0.4
2022-10-08T07:18:54.205Z,1.3
2022-10-08T07:23:53.604Z,1.3
2022-10-08T07:28:54.075Z,0.9
2022-10-08T07:33:54.508Z,0.9
2022-10-08T07:38:53.935Z,1.3
2022-10-08T07:43:54.675Z,1.3
2022-10-08T07:48:54.220Z,1.3
2022-10-08T07:53:53.709Z,1.3
2022-10-08T07:58:54.179Z,1.6
2022-10-08T08:03:53.634Z,1.6
2022-10-08T08:08:53.967Z,1.8
2022-10-08T08:13:54.354Z,1.8
2022-10-08T08:18:53.650Z,1.3
2022-10-08T08:23:54.146Z,1.3
2022-10-08T08:28:54.438Z,1.8
2022-10-08T08:33:53.986Z,1.8
2022-10-08T08:38:53.718Z,1.8
2022-10-08T08:43:54.166Z,1.8
2022-10-08T08:48:53.811Z,1.3
2022-10-08T08:53:54.109Z,1.3
2022-10-08T08:58:54.343Z,1.9
2022-10-08T09:03:53.683Z,1.9
2022-10-08T09:08:54.316Z,2.7
2022-10-08T09:13:54.293Z,2.7
2022-10-08T09:18:53.757Z,2.7
2022-10-08T09:23:54.194Z,2.7
2022-10-08T09:28:53.601Z,1.8
2022-10-08T09:33:54.236Z,1.8
2022-10-08T09:38:53.791Z,1.9
2022-10-08T09:43:53.534Z,1.9
2022-10-08T09:48:54.226Z,1.8
2022-10-08T09:53:54.037Z,1.8
2022-10-08T09:58:54.380Z,1.8
2022-10-08T10:03:54.337Z,1.8
2022-10-08T10:08:54.108Z,2.1
2022-10-08T10:13:54.062Z,2.1
2022-10-08T10:18:54.383Z,2.2
2022-10-08T10:23:53.900Z,2.2
2022-10-08T10:28:54.286Z,2.2
2022-10-08T10:33:53.746Z,2.2
2022-10-08T10:38:54.256Z,1.8
2022-10-08T10:43:53.591Z,1.8
2022-10-08T10:48:54.049Z,2.2
2022-10-08T10:53:54.466Z,2.2
2022-10-08T10:58:53.876Z,2.2
2022-10-08T11:03:54.260Z,2.2
2022-10-08T11:08:53.877Z,1.8
2022-10-08T11:13:54.485Z,1.8
2022-10-08T11:18:53.859Z,2.3
2022-10-08T11:23:54.526Z,2.3
2022-10-08T11:28:54.000Z,2.9
2022-10-08T11:33:53.661Z,2.9
2022-10-08T11:38:54.152Z,2.1
2022-10-08T11:43:54.406Z,2.1
2022-10-08T11:48:53.908Z,1
2022-10-08T11:53:54.491Z,1
2022-10-08T11:58:53.874Z,0.4
2022-10-08T12:03:54.681Z,0.4
2022-10-08T12:08:54.077Z,0.9
2022-10-08T12:13:54.447Z,0.9
2022-10-08T12:18:53.833Z,1.3
2022-10-08T12:23:54.368Z,1.3
2022-10-08T12:28:53.723Z,1.8
2022-10-08T12:33:54.184Z,1.8
2022-10-08T12:38:53.780Z,1.9
2022-10-08T12:43:54.208Z,1.9
2022-10-08T12:48:53.792Z,2.1
2022-10-08T12:53:53.826Z,2.1
2022-10-08T12:58:54.308Z,1.7
2022-10-08T13:03:53.933Z,1.7
2022-10-08T13:08:53.629Z,2.8
2022-10-08T13:13:54.163Z,2.8
2022-10-08T13:18:54.590Z,2.3
2022-10-08T13:23:54.184Z,2.3
2022-10-08T13:29:01.986Z,2.1
2022-10-08T13:33:53.704Z,2.1
2022-10-08T13:38:54.269Z,1.8
2022-10-08T13:43:53.747Z,1.8
2022-10-08T13:48:54.250Z,1.8
2022-10-08T13:53:57.290Z,1.8
2022-10-08T13:58:53.936Z,1.3
2022-10-08T14:03:54.365Z,1.3
2022-10-08T14:08:53.873Z,1.2
2022-10-08T14:13:54.293Z,1.2
2022-10-08T14:18:59.462Z,1.8
2022-10-08T14:23:53.985Z,1.8
2022-10-08T14:28:54.379Z,1.3
2022-10-08T14:33:53.805Z,1.3
2022-10-08T14:38:54.776Z,0.9
2022-10-08T14:43:54.325Z,0.9
2022-10-08T14:48:54.106Z,1.3
2022-10-08T14:53:53.893Z,1.3
2022-10-08T14:58:54.563Z,1.3
2022-10-08T15:03:54.780Z,1.3
2022-10-08T15:08:53.793Z,1.3
2022-10-08T15:13:54.415Z,1.3
2022-10-08T15:18:54.947Z,1.3
2022-10-08T15:23:54.129Z,1.3
2022-10-08T15:28:54.307Z,1.3
2022-10-08T15:33:53.921Z,1.3
2022-10-08T15:38:54.089Z,1.3
2022-10-08T15:43:53.687Z,1.3
2022-10-08T15:48:54.377Z,2.2
2022-10-08T15:53:54.117Z,2.2
2022-10-08T15:58:54.460Z,1.8
2022-10-08T16:03:54.311Z,1.8
2022-10-08T16:08:53.770Z,0.9
2022-10-08T16:13:54.513Z,0.9
2022-10-08T16:18:54.008Z,0.6
2022-10-08T16:23:54.620Z,0.6
2022-10-08T16:28:54.249Z,0.1
2022-10-08T16:33:54.091Z,0.1
2022-10-08T16:38:53.976Z,0.5
2022-10-08T16:43:53.737Z,0.5
2022-10-08T16:48:54.245Z,1.3
2022-10-08T16:53:54.719Z,1.3
2022-10-08T16:58:54.273Z,0.9
2022-10-08T17:03:54.625Z,0.9
2022-10-08T17:08:54.072Z,0.4
2022-10-08T17:13:54.592Z,0.4
2022-10-08T17:18:54.024Z,0.9
2022-10-08T17:23:54.216Z,0.9
2022-10-08T17:28:54.728Z,0.4
2022-10-08T17:33:54.045Z,0.4
2022-10-08T17:38:54.340Z,0
2022-10-08T17:43:53.780Z,0
2022-10-08T17:48:54.138Z,0
2022-10-08T17:53:54.693Z,0
2022-10-08T17:58:54.220Z,0
2022-10-08T18:03:54.854Z,0
2022-10-08T18:08:54.298Z,0
2022-10-08T18:13:53.966Z,0
2022-10-08T18:18:54.538Z,0.1
2022-10-08T18:23:54.658Z,0.1
2022-10-08T18:28:54.111Z,0.2
2022-10-08T18:33:54.652Z,0.2
2022-10-08T18:38:54.864Z,0.3
2022-10-08T18:43:54.337Z,0.3
2022-10-08T18:48:54.740Z,0.3
2022-10-08T18:53:54.192Z,0.3
2022-10-08T18:58:54.680Z,0.1
2022-10-08T19:03:54.177Z,0.1
2022-10-08T19:08:54.789Z,0.4
2022-10-08T19:13:54.338Z,0.4
2022-10-08T19:18:54.695Z,0.4
2022-10-08T19:23:54.172Z,0.4
2022-10-08T19:28:54.565Z,0.4
2022-10-08T19:33:54.001Z,0.4
2022-10-08T19:38:54.530Z,0.3
2022-10-08T19:43:54.958Z,0.3
2022-10-08T19:48:54.283Z,0
2022-10-08T19:53:54.812Z,0
2022-10-08T19:58:54.188Z,0
2022-10-08T20:03:54.540Z,0
2022-10-08T20:08:54.326Z,0
2022-10-08T20:13:54.754Z,0
2022-10-08T20:18:54.264Z,0
2022-10-08T20:23:54.731Z,0
2022-10-08T20:28:53.963Z,0
2022-10-08T20:33:54.238Z,0
2022-10-08T20:38:54.621Z,0
2022-10-08T20:43:54.096Z,0
2022-10-08T20:48:54.702Z,0.2
2022-10-08T20:53:54.624Z,0.2
2022-10-08T20:58:54.430Z,0
2022-10-08T21:03:54.641Z,0
2022-10-08T21:08:54.309Z,0.4
2022-10-08T21:13:54.183Z,0.4
2022-10-08T21:18:54.497Z,0.4
2022-10-08T21:23:54.202Z,0.4
2022-10-08T21:28:54.563Z,0.4
2022-10-08T21:33:55.141Z,0.4
2022-10-08T21:38:54.106Z,0.4
2022-10-08T21:43:54.836Z,0.4
2022-10-08T21:48:54.279Z,0
2022-10-08T21:53:54.901Z,0
2022-10-08T21:58:54.409Z,0.4
2022-10-08T22:03:54.414Z,0.4
2022-10-08T22:08:54.221Z,0
2022-10-08T22:13:54.304Z,0
2022-10-08T22:18:54.434Z,0.1
2022-10-08T22:23:55.003Z,0.1
2022-10-08T22:28:54.090Z,0.4
2022-10-08T22:33:54.138Z,0.4
2022-10-08T22:38:54.853Z,0.4
2022-10-08T22:43:53.933Z,0.4
2022-10-08T22:48:54.581Z,0.4
2022-10-08T22:53:54.775Z,0.4
2022-10-08T22:58:54.883Z,0
2022-10-08T23:03:54.224Z,0
2022-10-08T23:08:54.485Z,0
2022-10-08T23:13:54.737Z,0
2022-10-08T23:18:54.867Z,0
2022-10-08T23:23:54.162Z,0
2022-10-08T23:28:54.352Z,0
2022-10-08T23:33:54.444Z,0
2022-10-08T23:38:54.147Z,0
2022-10-08T23:43:54.365Z,0
2022-10-08T23:48:54.538Z,0
2022-10-08T23:53:54.758Z,0
2022-10-08T23:58:54.172Z,0
